sensor_id;sensor_type;location;lat;lon;timestamp;P1;durP1;ratioP1;P2;durP2;ratioP2
20142;SDS011;10509;46.476;7.134;2022-07-22T00:01:25;6.80;;;6.40;;
20142;SDS011;10509;46.476;7.134;2022-07-22T00:03:51;6.67;;;6.27;;
20142;SDS011;10509;46.476;7.134;2022-07-22T00:06:17;6.67;;;6.17;;
20142;SDS011;10509;46.476;7.134;2022-07-22T00:08:43;7.13;;;6.73;;
20142;SDS011;10509;46.476;7.134;2022-07-22T00:11:09;7.40;;;7.00;;
20142;SDS011;10509;46.476;7.134;2022-07-22T00:13:35;7.27;;;6.77;;
20142;SDS011;10509;46.476;7.134;2022-07-22T00:16:02;6.60;;;6.10;;
20142;SDS011;10509;46.476;7.134;2022-07-22T00:18:28;7.13;;;6.70;;
20142;SDS011;10509;46.476;7.134;2022-07-22T00:20:54;7.10;;;6.67;;
20142;SDS011;10509;46.476;7.134;2022-07-22T00:23:20;7.00;;;6.57;;
20142;SDS011;10509;46.476;7.134;2022-07-22T00:25:46;7.43;;;6.87;;
20142;SDS011;10509;46.476;7.134;2022-07-22T00:28:12;6.90;;;6.50;;
20142;SDS011;10509;46.476;7.134;2022-07-22T00:30:38;6.70;;;6.30;;
20142;SDS011;10509;46.476;7.134;2022-07-22T00:33:05;7.40;;;6.90;;
20142;SDS011;10509;46.476;7.134;2022-07-22T00:35:31;7.00;;;6.57;;
20142;SDS011;10509;46.476;7.134;2022-07-22T00:37:57;6.83;;;6.43;;
20142;SDS011;10509;46.476;7.134;2022-07-22T00:40:23;7.20;;;6.60;;
20142;SDS011;10509;46.476;7.134;2022-07-22T00:42:49;7.37;;;6.87;;
20142;SDS011;10509;46.476;7.134;2022-07-22T00:45:15;6.83;;;6.43;;
20142;SDS011;10509;46.476;7.134;2022-07-22T00:47:41;7.03;;;6.63;;
20142;SDS011;10509;46.476;7.134;2022-07-22T00:50:07;7.03;;;6.63;;
20142;SDS011;10509;46.476;7.134;2022-07-22T00:52:33;7.20;;;6.70;;
20142;SDS011;10509;46.476;7.134;2022-07-22T00:55:00;7.13;;;6.63;;
20142;SDS011;10509;46.476;7.134;2022-07-22T00:57:26;7.57;;;7.07;;
20142;SDS011;10509;46.476;7.134;2022-07-22T00:59:52;7.83;;;7.13;;
20142;SDS011;10509;46.476;7.134;2022-07-22T01:02:18;7.10;;;6.70;;
20142;SDS011;10509;46.476;7.134;2022-07-22T01:04:44;7.33;;;6.93;;
20142;SDS011;10509;46.476;7.134;2022-07-22T01:07:10;8.63;;;7.97;;
20142;SDS011;10509;46.476;7.134;2022-07-22T01:09:36;7.40;;;6.90;;
20142;SDS011;10509;46.476;7.134;2022-07-22T01:12:02;7.37;;;6.83;;
20142;SDS011;10509;46.476;7.134;2022-07-22T01:14:29;7.50;;;7.00;;
20142;SDS011;10509;46.476;7.134;2022-07-22T01:16:55;8.03;;;7.50;;
20142;SDS011;10509;46.476;7.134;2022-07-22T01:19:21;7.37;;;6.97;;
20142;SDS011;10509;46.476;7.134;2022-07-22T01:21:47;8.07;;;7.47;;
20142;SDS011;10509;46.476;7.134;2022-07-22T01:24:13;7.63;;;7.13;;
20142;SDS011;10509;46.476;7.134;2022-07-22T01:26:39;7.43;;;7.03;;
20142;SDS011;10509;46.476;7.134;2022-07-22T01:29:06;7.73;;;7.23;;
20142;SDS011;10509;46.476;7.134;2022-07-22T01:31:32;8.40;;;7.90;;
20142;SDS011;10509;46.476;7.134;2022-07-22T01:33:58;8.37;;;7.50;;
20142;SDS011;10509;46.476;7.134;2022-07-22T01:36:24;8.13;;;7.57;;
20142;SDS011;10509;46.476;7.134;2022-07-22T01:38:51;7.53;;;7.03;;
20142;SDS011;10509;46.476;7.134;2022-07-22T01:41:17;7.67;;;7.27;;
20142;SDS011;10509;46.476;7.134;2022-07-22T01:43:43;7.83;;;7.33;;
20142;SDS011;10509;46.476;7.134;2022-07-22T01:46:09;7.23;;;6.83;;
20142;SDS011;10509;46.476;7.134;2022-07-22T01:48:35;7.80;;;7.10;;
20142;SDS011;10509;46.476;7.134;2022-07-22T01:51:01;7.87;;;7.27;;
20142;SDS011;10509;46.476;7.134;2022-07-22T01:53:27;7.60;;;7.00;;
20142;SDS011;10509;46.476;7.134;2022-07-22T01:55:53;7.10;;;6.70;;
20142;SDS011;10509;46.476;7.134;2022-07-22T01:58:19;7.90;;;7.40;;
20142;SDS011;10509;46.476;7.134;2022-07-22T02:00:46;8.30;;;7.63;;
20142;SDS011;10509;46.476;7.134;2022-07-22T02:03:12;7.67;;;7.17;;
20142;SDS011;10509;46.476;7.134;2022-07-22T02:05:38;7.93;;;7.23;;
20142;SDS011;10509;46.476;7.134;2022-07-22T02:08:05;7.47;;;7.00;;
20142;SDS011;10509;46.476;7.134;2022-07-22T02:10:32;7.50;;;7.00;;
20142;SDS011;10509;46.476;7.134;2022-07-22T02:12:58;7.60;;;7.20;;
20142;SDS011;10509;46.476;7.134;2022-07-22T02:15:24;7.60;;;7.10;;
20142;SDS011;10509;46.476;7.134;2022-07-22T02:17:50;7.77;;;7.27;;
20142;SDS011;10509;46.476;7.134;2022-07-22T02:20:17;8.30;;;7.70;;
20142;SDS011;10509;46.476;7.134;2022-07-22T02:22:43;8.40;;;7.80;;
20142;SDS011;10509;46.476;7.134;2022-07-22T02:25:09;8.40;;;7.90;;
20142;SDS011;10509;46.476;7.134;2022-07-22T02:27:35;8.83;;;8.33;;
20142;SDS011;10509;46.476;7.134;2022-07-22T02:30:03;7.40;;;7.00;;
20142;SDS011;10509;46.476;7.134;2022-07-22T02:32:29;7.60;;;7.00;;
20142;SDS011;10509;46.476;7.134;2022-07-22T02:34:55;7.40;;;6.90;;
20142;SDS011;10509;46.476;7.134;2022-07-22T02:37:21;8.30;;;7.47;;
20142;SDS011;10509;46.476;7.134;2022-07-22T02:39:47;8.00;;;7.50;;
20142;SDS011;10509;46.476;7.134;2022-07-22T02:42:13;8.10;;;7.50;;
20142;SDS011;10509;46.476;7.134;2022-07-22T02:44:39;7.47;;;6.97;;
20142;SDS011;10509;46.476;7.134;2022-07-22T02:47:06;8.43;;;7.80;;
20142;SDS011;10509;46.476;7.134;2022-07-22T02:49:32;8.50;;;7.57;;
20142;SDS011;10509;46.476;7.134;2022-07-22T02:51:58;8.30;;;7.67;;
20142;SDS011;10509;46.476;7.134;2022-07-22T02:54:24;8.63;;;8.03;;
20142;SDS011;10509;46.476;7.134;2022-07-22T02:56:50;8.43;;;7.73;;
20142;SDS011;10509;46.476;7.134;2022-07-22T02:59:16;7.90;;;7.40;;
20142;SDS011;10509;46.476;7.134;2022-07-22T03:01:42;8.43;;;7.83;;
20142;SDS011;10509;46.476;7.134;2022-07-22T03:04:08;8.13;;;7.60;;
20142;SDS011;10509;46.476;7.134;2022-07-22T03:06:34;7.83;;;7.33;;
20142;SDS011;10509;46.476;7.134;2022-07-22T03:09:00;8.30;;;7.50;;
20142;SDS011;10509;46.476;7.134;2022-07-22T03:11:27;7.77;;;7.27;;
20142;SDS011;10509;46.476;7.134;2022-07-22T03:13:52;8.20;;;7.57;;
20142;SDS011;10509;46.476;7.134;2022-07-22T03:16:18;8.00;;;7.50;;
20142;SDS011;10509;46.476;7.134;2022-07-22T03:18:44;8.80;;;8.20;;
20142;SDS011;10509;46.476;7.134;2022-07-22T03:21:10;8.60;;;8.00;;
20142;SDS011;10509;46.476;7.134;2022-07-22T03:23:36;8.23;;;7.73;;
20142;SDS011;10509;46.476;7.134;2022-07-22T03:26:02;8.83;;;8.23;;
20142;SDS011;10509;46.476;7.134;2022-07-22T03:28:28;8.23;;;7.63;;
20142;SDS011;10509;46.476;7.134;2022-07-22T03:30:54;8.23;;;7.73;;
20142;SDS011;10509;46.476;7.134;2022-07-22T03:33:20;8.30;;;7.80;;
20142;SDS011;10509;46.476;7.134;2022-07-22T03:35:46;7.90;;;7.40;;
20142;SDS011;10509;46.476;7.134;2022-07-22T03:38:12;8.80;;;8.30;;
20142;SDS011;10509;46.476;7.134;2022-07-22T03:40:38;8.37;;;7.87;;
20142;SDS011;10509;46.476;7.134;2022-07-22T03:43:04;8.13;;;7.53;;
20142;SDS011;10509;46.476;7.134;2022-07-22T03:45:30;8.40;;;7.90;;
20142;SDS011;10509;46.476;7.134;2022-07-22T03:47:56;7.73;;;7.23;;
20142;SDS011;10509;46.476;7.134;2022-07-22T03:50:23;8.10;;;7.60;;
20142;SDS011;10509;46.476;7.134;2022-07-22T03:52:49;10.97;;;8.20;;
20142;SDS011;10509;46.476;7.134;2022-07-22T03:55:15;8.00;;;7.50;;
20142;SDS011;10509;46.476;7.134;2022-07-22T03:57:41;8.83;;;8.20;;
20142;SDS011;10509;46.476;7.134;2022-07-22T04:00:07;8.60;;;7.90;;
20142;SDS011;10509;46.476;7.134;2022-07-22T04:02:33;7.97;;;7.27;;
20142;SDS011;10509;46.476;7.134;2022-07-22T04:04:59;8.43;;;7.67;;
20142;SDS011;10509;46.476;7.134;2022-07-22T04:07:25;8.37;;;7.87;;
20142;SDS011;10509;46.476;7.134;2022-07-22T04:09:51;9.23;;;8.50;;
20142;SDS011;10509;46.476;7.134;2022-07-22T04:12:29;8.57;;;8.07;;
20142;SDS011;10509;46.476;7.134;2022-07-22T04:14:55;8.93;;;8.40;;
20142;SDS011;10509;46.476;7.134;2022-07-22T04:17:21;7.70;;;7.30;;
20142;SDS011;10509;46.476;7.134;2022-07-22T04:19:47;8.73;;;8.20;;
20142;SDS011;10509;46.476;7.134;2022-07-22T04:22:13;8.23;;;7.73;;
20142;SDS011;10509;46.476;7.134;2022-07-22T04:24:39;7.83;;;7.33;;
20142;SDS011;10509;46.476;7.134;2022-07-22T04:27:05;8.70;;;8.20;;
20142;SDS011;10509;46.476;7.134;2022-07-22T04:29:31;8.83;;;8.23;;
20142;SDS011;10509;46.476;7.134;2022-07-22T04:31:57;8.30;;;7.80;;
20142;SDS011;10509;46.476;7.134;2022-07-22T04:34:23;8.67;;;8.07;;
20142;SDS011;10509;46.476;7.134;2022-07-22T04:36:49;8.23;;;7.73;;
20142;SDS011;10509;46.476;7.134;2022-07-22T04:39:15;8.33;;;7.83;;
20142;SDS011;10509;46.476;7.134;2022-07-22T04:41:42;8.57;;;8.07;;
20142;SDS011;10509;46.476;7.134;2022-07-22T04:44:08;8.90;;;8.30;;
20142;SDS011;10509;46.476;7.134;2022-07-22T04:46:34;8.87;;;8.13;;
20142;SDS011;10509;46.476;7.134;2022-07-22T04:49:00;9.07;;;8.47;;
20142;SDS011;10509;46.476;7.134;2022-07-22T04:51:26;9.30;;;8.70;;
20142;SDS011;10509;46.476;7.134;2022-07-22T04:53:52;9.27;;;8.57;;
20142;SDS011;10509;46.476;7.134;2022-07-22T04:56:18;10.60;;;9.30;;
20142;SDS011;10509;46.476;7.134;2022-07-22T04:58:44;8.47;;;7.90;;
20142;SDS011;10509;46.476;7.134;2022-07-22T05:01:10;9.23;;;8.53;;
20142;SDS011;10509;46.476;7.134;2022-07-22T05:03:39;8.60;;;8.10;;
20142;SDS011;10509;46.476;7.134;2022-07-22T05:06:05;8.60;;;8.07;;
20142;SDS011;10509;46.476;7.134;2022-07-22T05:08:31;14.13;;;8.77;;
20142;SDS011;10509;46.476;7.134;2022-07-22T05:10:57;34.43;;;11.77;;
20142;SDS011;10509;46.476;7.134;2022-07-22T05:13:23;21.73;;;10.27;;
20142;SDS011;10509;46.476;7.134;2022-07-22T05:15:49;10.20;;;7.83;;
20142;SDS011;10509;46.476;7.134;2022-07-22T05:18:16;7.97;;;7.37;;
20142;SDS011;10509;46.476;7.134;2022-07-22T05:20:42;8.63;;;7.93;;
20142;SDS011;10509;46.476;7.134;2022-07-22T05:23:08;7.50;;;7.00;;
20142;SDS011;10509;46.476;7.134;2022-07-22T05:25:34;7.67;;;7.27;;
20142;SDS011;10509;46.476;7.134;2022-07-22T05:28:00;7.83;;;7.27;;
20142;SDS011;10509;46.476;7.134;2022-07-22T05:30:26;7.87;;;7.27;;
20142;SDS011;10509;46.476;7.134;2022-07-22T05:32:52;7.80;;;7.13;;
20142;SDS011;10509;46.476;7.134;2022-07-22T05:35:18;6.87;;;6.37;;
20142;SDS011;10509;46.476;7.134;2022-07-22T05:37:45;7.78;;;7.18;;
20142;SDS011;10509;46.476;7.134;2022-07-22T05:40:11;6.80;;;6.40;;
20142;SDS011;10509;46.476;7.134;2022-07-22T05:42:37;7.53;;;7.03;;
20142;SDS011;10509;46.476;7.134;2022-07-22T05:45:03;7.00;;;6.53;;
20142;SDS011;10509;46.476;7.134;2022-07-22T05:47:30;7.32;;;6.88;;
20142;SDS011;10509;46.476;7.134;2022-07-22T05:49:56;7.20;;;6.55;;
20142;SDS011;10509;46.476;7.134;2022-07-22T05:52:22;7.32;;;6.82;;
20142;SDS011;10509;46.476;7.134;2022-07-22T05:54:48;7.30;;;6.70;;
20142;SDS011;10509;46.476;7.134;2022-07-22T05:57:13;6.70;;;6.30;;
20142;SDS011;10509;46.476;7.134;2022-07-22T05:59:39;6.97;;;6.38;;
20142;SDS011;10509;46.476;7.134;2022-07-22T06:02:06;7.32;;;6.82;;
20142;SDS011;10509;46.476;7.134;2022-07-22T06:04:32;7.03;;;6.53;;
20142;SDS011;10509;46.476;7.134;2022-07-22T06:06:58;6.80;;;6.40;;
20142;SDS011;10509;46.476;7.134;2022-07-22T06:09:24;6.65;;;6.15;;
20142;SDS011;10509;46.476;7.134;2022-07-22T06:11:50;6.63;;;6.00;;
20142;SDS011;10509;46.476;7.134;2022-07-22T06:14:16;7.78;;;7.25;;
20142;SDS011;10509;46.476;7.134;2022-07-22T06:16:42;7.28;;;6.70;;
20142;SDS011;10509;46.476;7.134;2022-07-22T06:19:08;6.85;;;6.32;;
20142;SDS011;10509;46.476;7.134;2022-07-22T06:21:35;7.00;;;6.40;;
20142;SDS011;10509;46.476;7.134;2022-07-22T06:24:03;6.78;;;6.28;;
20142;SDS011;10509;46.476;7.134;2022-07-22T06:26:29;6.47;;;6.07;;
20142;SDS011;10509;46.476;7.134;2022-07-22T06:28:55;7.22;;;6.57;;
20142;SDS011;10509;46.476;7.134;2022-07-22T06:31:21;6.90;;;6.38;;
20142;SDS011;10509;46.476;7.134;2022-07-22T06:33:47;7.47;;;6.97;;
20142;SDS011;10509;46.476;7.134;2022-07-22T06:36:13;6.82;;;6.32;;
20142;SDS011;10509;46.476;7.134;2022-07-22T06:38:40;7.13;;;6.38;;
20142;SDS011;10509;46.476;7.134;2022-07-22T06:41:06;7.20;;;6.63;;
20142;SDS011;10509;46.476;7.134;2022-07-22T06:43:32;6.75;;;6.25;;
20142;SDS011;10509;46.476;7.134;2022-07-22T06:45:58;6.70;;;6.10;;
20142;SDS011;10509;46.476;7.134;2022-07-22T06:48:24;7.20;;;6.60;;
20142;SDS011;10509;46.476;7.134;2022-07-22T06:50:50;6.32;;;5.93;;
20142;SDS011;10509;46.476;7.134;2022-07-22T06:53:16;6.10;;;5.70;;
20142;SDS011;10509;46.476;7.134;2022-07-22T06:55:42;7.35;;;6.63;;
20142;SDS011;10509;46.476;7.134;2022-07-22T06:58:08;6.35;;;5.85;;
20142;SDS011;10509;46.476;7.134;2022-07-22T07:00:34;6.25;;;5.85;;
20142;SDS011;10509;46.476;7.134;2022-07-22T07:03:00;6.53;;;6.10;;
20142;SDS011;10509;46.476;7.134;2022-07-22T07:05:26;7.72;;;7.05;;
20142;SDS011;10509;46.476;7.134;2022-07-22T07:07:53;6.57;;;5.97;;
20142;SDS011;10509;46.476;7.134;2022-07-22T07:10:19;6.43;;;6.00;;
20142;SDS011;10509;46.476;7.134;2022-07-22T07:12:45;6.60;;;6.10;;
20142;SDS011;10509;46.476;7.134;2022-07-22T07:15:11;6.82;;;6.43;;
20142;SDS011;10509;46.476;7.134;2022-07-22T07:17:37;6.18;;;5.63;;
20142;SDS011;10509;46.476;7.134;2022-07-22T07:20:04;6.30;;;5.80;;
20142;SDS011;10509;46.476;7.134;2022-07-22T07:22:31;6.32;;;5.82;;
20142;SDS011;10509;46.476;7.134;2022-07-22T07:24:57;6.25;;;5.70;;
20142;SDS011;10509;46.476;7.134;2022-07-22T07:27:23;9.30;;;6.00;;
20142;SDS011;10509;46.476;7.134;2022-07-22T07:29:50;6.95;;;6.45;;
20142;SDS011;10509;46.476;7.134;2022-07-22T07:32:16;7.13;;;6.63;;
20142;SDS011;10509;46.476;7.134;2022-07-22T07:34:42;9.25;;;8.45;;
20142;SDS011;10509;46.476;7.134;2022-07-22T07:37:08;7.53;;;7.03;;
20142;SDS011;10509;46.476;7.134;2022-07-22T07:39:34;15.80;;;10.30;;
20142;SDS011;10509;46.476;7.134;2022-07-22T07:42:00;10.75;;;10.02;;
20142;SDS011;10509;46.476;7.134;2022-07-22T07:44:26;8.63;;;8.00;;
20142;SDS011;10509;46.476;7.134;2022-07-22T07:46:52;7.72;;;7.22;;
20142;SDS011;10509;46.476;7.134;2022-07-22T07:49:18;10.50;;;9.80;;
20142;SDS011;10509;46.476;7.134;2022-07-22T07:51:44;9.52;;;8.55;;
20142;SDS011;10509;46.476;7.134;2022-07-22T07:54:10;9.25;;;8.43;;
20142;SDS011;10509;46.476;7.134;2022-07-22T07:56:36;9.38;;;8.77;;
20142;SDS011;10509;46.476;7.134;2022-07-22T07:59:02;9.70;;;8.90;;
20142;SDS011;10509;46.476;7.134;2022-07-22T08:01:28;7.97;;;7.47;;
20142;SDS011;10509;46.476;7.134;2022-07-22T08:03:54;9.35;;;8.50;;
20142;SDS011;10509;46.476;7.134;2022-07-22T08:06:20;8.30;;;7.55;;
20142;SDS011;10509;46.476;7.134;2022-07-22T08:08:46;9.10;;;8.50;;
20142;SDS011;10509;46.476;7.134;2022-07-22T08:11:12;8.48;;;7.97;;
20142;SDS011;10509;46.476;7.134;2022-07-22T08:13:38;8.55;;;7.90;;
20142;SDS011;10509;46.476;7.134;2022-07-22T08:16:04;8.40;;;7.70;;
20142;SDS011;10509;46.476;7.134;2022-07-22T08:18:30;7.90;;;7.40;;
20142;SDS011;10509;46.476;7.134;2022-07-22T08:20:57;8.10;;;7.38;;
20142;SDS011;10509;46.476;7.134;2022-07-22T08:23:23;8.57;;;7.97;;
20142;SDS011;10509;46.476;7.134;2022-07-22T08:25:49;7.82;;;7.22;;
20142;SDS011;10509;46.476;7.134;2022-07-22T08:28:15;7.75;;;7.25;;
20142;SDS011;10509;46.476;7.134;2022-07-22T08:30:41;8.73;;;6.90;;
20142;SDS011;10509;46.476;7.134;2022-07-22T08:33:07;7.20;;;6.70;;
20142;SDS011;10509;46.476;7.134;2022-07-22T08:35:34;7.70;;;7.00;;
20142;SDS011;10509;46.476;7.134;2022-07-22T08:38:00;7.30;;;6.78;;
20142;SDS011;10509;46.476;7.134;2022-07-22T08:40:26;7.07;;;6.45;;
20142;SDS011;10509;46.476;7.134;2022-07-22T08:42:52;6.93;;;6.53;;
20142;SDS011;10509;46.476;7.134;2022-07-22T08:45:18;7.53;;;6.93;;
20142;SDS011;10509;46.476;7.134;2022-07-22T08:47:49;6.72;;;6.32;;
20142;SDS011;10509;46.476;7.134;2022-07-22T08:50:15;6.72;;;6.28;;
20142;SDS011;10509;46.476;7.134;2022-07-22T08:52:41;6.28;;;5.80;;
20142;SDS011;10509;46.476;7.134;2022-07-22T08:55:08;6.53;;;6.03;;
20142;SDS011;10509;46.476;7.134;2022-07-22T08:57:35;6.45;;;5.85;;
20142;SDS011;10509;46.476;7.134;2022-07-22T09:00:07;6.15;;;5.75;;
20142;SDS011;10509;46.476;7.134;2022-07-22T09:02:38;6.15;;;5.60;;
20142;SDS011;10509;46.476;7.134;2022-07-22T09:05:05;6.53;;;6.13;;
20142;SDS011;10509;46.476;7.134;2022-07-22T09:07:33;6.45;;;5.95;;
20142;SDS011;10509;46.476;7.134;2022-07-22T09:10:00;6.32;;;5.90;;
20142;SDS011;10509;46.476;7.134;2022-07-22T09:12:26;6.43;;;5.93;;
20142;SDS011;10509;46.476;7.134;2022-07-22T09:14:55;6.22;;;5.82;;
20142;SDS011;10509;46.476;7.134;2022-07-22T09:17:22;6.05;;;5.55;;
20142;SDS011;10509;46.476;7.134;2022-07-22T09:19:49;6.22;;;5.82;;
20142;SDS011;10509;46.476;7.134;2022-07-22T09:22:17;5.90;;;5.50;;
20142;SDS011;10509;46.476;7.134;2022-07-22T09:24:55;5.85;;;5.55;;
20142;SDS011;10509;46.476;7.134;2022-07-22T09:27:25;5.70;;;5.30;;
20142;SDS011;10509;46.476;7.134;2022-07-22T09:29:51;6.30;;;5.80;;
20142;SDS011;10509;46.476;7.134;2022-07-22T09:32:18;5.90;;;5.20;;
20142;SDS011;10509;46.476;7.134;2022-07-22T09:34:44;5.55;;;5.15;;
20142;SDS011;10509;46.476;7.134;2022-07-22T09:37:10;5.80;;;5.05;;
20142;SDS011;10509;46.476;7.134;2022-07-22T09:39:37;6.18;;;5.68;;
20142;SDS011;10509;46.476;7.134;2022-07-22T09:42:03;6.25;;;5.63;;
20142;SDS011;10509;46.476;7.134;2022-07-22T09:44:30;5.97;;;5.47;;
20142;SDS011;10509;46.476;7.134;2022-07-22T09:46:56;5.68;;;5.18;;
20142;SDS011;10509;46.476;7.134;2022-07-22T09:51:57;6.00;;;5.50;;
20142;SDS011;10509;46.476;7.134;2022-07-22T09:54:23;5.68;;;5.28;;
20142;SDS011;10509;46.476;7.134;2022-07-22T09:56:49;6.43;;;5.82;;
20142;SDS011;10509;46.476;7.134;2022-07-22T09:59:15;6.60;;;6.20;;
20142;SDS011;10509;46.476;7.134;2022-07-22T10:01:41;6.78;;;6.38;;
20142;SDS011;10509;46.476;7.134;2022-07-22T10:04:08;6.75;;;5.88;;
20142;SDS011;10509;46.476;7.134;2022-07-22T10:06:37;6.85;;;6.20;;
20142;SDS011;10509;46.476;7.134;2022-07-22T10:09:04;6.10;;;5.70;;
20142;SDS011;10509;46.476;7.134;2022-07-22T10:11:31;6.20;;;5.80;;
20142;SDS011;10509;46.476;7.134;2022-07-22T10:13:57;7.20;;;6.22;;
20142;SDS011;10509;46.476;7.134;2022-07-22T10:16:23;5.55;;;5.20;;
20142;SDS011;10509;46.476;7.134;2022-07-22T10:18:49;6.57;;;6.18;;
20142;SDS011;10509;46.476;7.134;2022-07-22T10:21:15;6.75;;;6.35;;
20142;SDS011;10509;46.476;7.134;2022-07-22T10:26:45;6.65;;;6.25;;
20142;SDS011;10509;46.476;7.134;2022-07-22T10:29:31;7.30;;;6.90;;
20142;SDS011;10509;46.476;7.134;2022-07-22T10:35:27;6.35;;;5.95;;
20142;SDS011;10509;46.476;7.134;2022-07-22T10:40:10;6.03;;;5.63;;
20142;SDS011;10509;46.476;7.134;2022-07-22T10:45:21;6.45;;;6.05;;
20142;SDS011;10509;46.476;7.134;2022-07-22T10:47:51;6.53;;;6.15;;
20142;SDS011;10509;46.476;7.134;2022-07-22T10:53:04;6.82;;;6.43;;
20142;SDS011;10509;46.476;7.134;2022-07-22T10:55:30;6.65;;;6.25;;
20142;SDS011;10509;46.476;7.134;2022-07-22T10:57:56;6.55;;;6.05;;
20142;SDS011;10509;46.476;7.134;2022-07-22T11:00:22;6.57;;;6.07;;
20142;SDS011;10509;46.476;7.134;2022-07-22T11:02:48;6.60;;;6.20;;
20142;SDS011;10509;46.476;7.134;2022-07-22T11:05:14;6.13;;;5.72;;
20142;SDS011;10509;46.476;7.134;2022-07-22T11:07:43;6.55;;;6.10;;
20142;SDS011;10509;46.476;7.134;2022-07-22T11:12:36;6.55;;;6.13;;
20142;SDS011;10509;46.476;7.134;2022-07-22T11:15:02;5.82;;;5.43;;
20142;SDS011;10509;46.476;7.134;2022-07-22T11:17:28;6.28;;;5.88;;
20142;SDS011;10509;46.476;7.134;2022-07-22T11:19:59;6.00;;;5.60;;
20142;SDS011;10509;46.476;7.134;2022-07-22T11:22:25;9.93;;;5.68;;
20142;SDS011;10509;46.476;7.134;2022-07-22T11:24:52;6.38;;;5.97;;
20142;SDS011;10509;46.476;7.134;2022-07-22T11:27:18;6.18;;;5.78;;
20142;SDS011;10509;46.476;7.134;2022-07-22T11:29:50;7.85;;;5.50;;
20142;SDS011;10509;46.476;7.134;2022-07-22T11:32:17;6.30;;;5.90;;
20142;SDS011;10509;46.476;7.134;2022-07-22T11:34:44;6.25;;;5.75;;
20142;SDS011;10509;46.476;7.134;2022-07-22T11:37:14;5.57;;;5.22;;
20142;SDS011;10509;46.476;7.134;2022-07-22T11:39:41;6.82;;;6.32;;
20142;SDS011;10509;46.476;7.134;2022-07-22T11:42:07;6.60;;;6.07;;
20142;SDS011;10509;46.476;7.134;2022-07-22T11:44:34;6.25;;;5.95;;
20142;SDS011;10509;46.476;7.134;2022-07-22T11:47:00;6.85;;;6.10;;
20142;SDS011;10509;46.476;7.134;2022-07-22T11:49:27;6.30;;;5.75;;
20142;SDS011;10509;46.476;7.134;2022-07-22T11:51:54;6.40;;;6.00;;
20142;SDS011;10509;46.476;7.134;2022-07-22T11:54:20;6.18;;;5.63;;
20142;SDS011;10509;46.476;7.134;2022-07-22T11:56:46;6.85;;;6.30;;
20142;SDS011;10509;46.476;7.134;2022-07-22T11:59:13;6.75;;;6.25;;
20142;SDS011;10509;46.476;7.134;2022-07-22T12:01:39;6.20;;;5.63;;
20142;SDS011;10509;46.476;7.134;2022-07-22T12:04:09;6.38;;;5.55;;
20142;SDS011;10509;46.476;7.134;2022-07-22T12:06:36;6.43;;;6.00;;
20142;SDS011;10509;46.476;7.134;2022-07-22T12:11:32;6.22;;;5.75;;
20142;SDS011;10509;46.476;7.134;2022-07-22T12:14:04;6.07;;;5.57;;
20142;SDS011;10509;46.476;7.134;2022-07-22T12:16:30;6.47;;;6.07;;
20142;SDS011;10509;46.476;7.134;2022-07-22T12:18:57;6.20;;;5.75;;
20142;SDS011;10509;46.476;7.134;2022-07-22T12:21:24;5.82;;;5.43;;
20142;SDS011;10509;46.476;7.134;2022-07-22T12:23:55;7.07;;;6.57;;
20142;SDS011;10509;46.476;7.134;2022-07-22T12:31:46;5.78;;;5.38;;
20142;SDS011;10509;46.476;7.134;2022-07-22T12:34:12;6.35;;;5.72;;
20142;SDS011;10509;46.476;7.134;2022-07-22T12:36:38;6.10;;;5.63;;
20142;SDS011;10509;46.476;7.134;2022-07-22T12:39:14;6.43;;;5.70;;
20142;SDS011;10509;46.476;7.134;2022-07-22T12:41:47;5.93;;;5.53;;
20142;SDS011;10509;46.476;7.134;2022-07-22T12:44:17;5.60;;;5.20;;
20142;SDS011;10509;46.476;7.134;2022-07-22T12:46:47;5.82;;;5.47;;
20142;SDS011;10509;46.476;7.134;2022-07-22T12:49:14;5.65;;;5.07;;
20142;SDS011;10509;46.476;7.134;2022-07-22T12:51:40;5.00;;;4.70;;
20142;SDS011;10509;46.476;7.134;2022-07-22T12:54:06;5.47;;;5.07;;
20142;SDS011;10509;46.476;7.134;2022-07-22T12:56:32;5.60;;;5.13;;
20142;SDS011;10509;46.476;7.134;2022-07-22T12:58:58;5.60;;;5.22;;
20142;SDS011;10509;46.476;7.134;2022-07-22T13:01:24;5.60;;;5.30;;
20142;SDS011;10509;46.476;7.134;2022-07-22T13:03:50;5.55;;;5.25;;
20142;SDS011;10509;46.476;7.134;2022-07-22T13:06:16;5.50;;;5.00;;
20142;SDS011;10509;46.476;7.134;2022-07-22T13:08:43;5.65;;;5.15;;
20142;SDS011;10509;46.476;7.134;2022-07-22T13:11:10;5.28;;;4.88;;
20142;SDS011;10509;46.476;7.134;2022-07-22T13:13:36;4.53;;;4.28;;
20142;SDS011;10509;46.476;7.134;2022-07-22T13:16:02;5.43;;;5.03;;
20142;SDS011;10509;46.476;7.134;2022-07-22T13:18:28;4.93;;;4.50;;
20142;SDS011;10509;46.476;7.134;2022-07-22T13:20:54;5.60;;;5.10;;
20142;SDS011;10509;46.476;7.134;2022-07-22T13:23:20;4.90;;;4.53;;
20142;SDS011;10509;46.476;7.134;2022-07-22T13:25:46;5.13;;;4.75;;
20142;SDS011;10509;46.476;7.134;2022-07-22T13:28:12;5.28;;;4.78;;
20142;SDS011;10509;46.476;7.134;2022-07-22T13:30:38;5.25;;;4.85;;
20142;SDS011;10509;46.476;7.134;2022-07-22T13:33:04;5.18;;;4.78;;
20142;SDS011;10509;46.476;7.134;2022-07-22T13:35:30;5.05;;;4.55;;
20142;SDS011;10509;46.476;7.134;2022-07-22T13:37:56;4.97;;;4.68;;
20142;SDS011;10509;46.476;7.134;2022-07-22T13:40:22;4.88;;;4.57;;
20142;SDS011;10509;46.476;7.134;2022-07-22T13:42:48;4.55;;;4.25;;
20142;SDS011;10509;46.476;7.134;2022-07-22T13:45:14;4.88;;;4.57;;
20142;SDS011;10509;46.476;7.134;2022-07-22T13:47:41;4.75;;;4.45;;
20142;SDS011;10509;46.476;7.134;2022-07-22T13:50:07;4.90;;;4.50;;
20142;SDS011;10509;46.476;7.134;2022-07-22T13:52:33;4.32;;;4.03;;
20142;SDS011;10509;46.476;7.134;2022-07-22T13:54:59;4.97;;;4.68;;
20142;SDS011;10509;46.476;7.134;2022-07-22T13:57:25;4.68;;;4.38;;
20142;SDS011;10509;46.476;7.134;2022-07-22T13:59:52;4.57;;;4.28;;
20142;SDS011;10509;46.476;7.134;2022-07-22T14:02:18;4.60;;;4.30;;
20142;SDS011;10509;46.476;7.134;2022-07-22T14:04:44;4.35;;;4.05;;
20142;SDS011;10509;46.476;7.134;2022-07-22T14:07:10;4.75;;;4.45;;
20142;SDS011;10509;46.476;7.134;2022-07-22T14:09:36;4.90;;;4.60;;
20142;SDS011;10509;46.476;7.134;2022-07-22T14:12:02;4.38;;;4.13;;
20142;SDS011;10509;46.476;7.134;2022-07-22T14:14:28;4.70;;;4.30;;
20142;SDS011;10509;46.476;7.134;2022-07-22T14:16:54;3.80;;;3.55;;
20142;SDS011;10509;46.476;7.134;2022-07-22T14:19:20;4.38;;;4.03;;
20142;SDS011;10509;46.476;7.134;2022-07-22T14:21:46;3.90;;;3.60;;
20142;SDS011;10509;46.476;7.134;2022-07-22T14:24:12;3.95;;;3.75;;
20142;SDS011;10509;46.476;7.134;2022-07-22T14:26:39;3.92;;;3.63;;
20142;SDS011;10509;46.476;7.134;2022-07-22T14:29:05;3.88;;;3.58;;
20142;SDS011;10509;46.476;7.134;2022-07-22T14:31:32;3.47;;;3.28;;
20142;SDS011;10509;46.476;7.134;2022-07-22T14:33:58;3.47;;;3.28;;
20142;SDS011;10509;46.476;7.134;2022-07-22T14:36:23;3.80;;;3.50;;
20142;SDS011;10509;46.476;7.134;2022-07-22T14:38:50;3.50;;;3.20;;
20142;SDS011;10509;46.476;7.134;2022-07-22T14:41:18;3.70;;;3.50;;
20142;SDS011;10509;46.476;7.134;2022-07-22T14:43:44;3.53;;;3.30;;
20142;SDS011;10509;46.476;7.134;2022-07-22T14:46:10;3.75;;;3.40;;
20142;SDS011;10509;46.476;7.134;2022-07-22T14:48:39;3.60;;;3.40;;
20142;SDS011;10509;46.476;7.134;2022-07-22T14:51:06;3.42;;;3.22;;
20142;SDS011;10509;46.476;7.134;2022-07-22T14:53:32;3.40;;;3.20;;
20142;SDS011;10509;46.476;7.134;2022-07-22T14:55:59;4.57;;;4.00;;
20142;SDS011;10509;46.476;7.134;2022-07-22T14:58:25;3.95;;;3.60;;
20142;SDS011;10509;46.476;7.134;2022-07-22T15:00:51;3.83;;;3.35;;
20142;SDS011;10509;46.476;7.134;2022-07-22T15:03:17;3.60;;;3.30;;
20142;SDS011;10509;46.476;7.134;2022-07-22T15:05:43;3.70;;;3.50;;
20142;SDS011;10509;46.476;7.134;2022-07-22T15:08:09;4.00;;;3.70;;
20142;SDS011;10509;46.476;7.134;2022-07-22T15:10:36;5.13;;;4.03;;